Salona, Pennsylvania
Current Conditions -  °F | °C
As of 6:53 AM on Friday 28 Nov 2014 (Local Time) from KUNV Reporting Station
Scattered Clouds Scattered Clouds  
Wind Chill: 14°   Ceiling: Unl
Heat Index: 25°   Visibility: 10mi
Dew Point: 18°   Wind: 12mph
Humidity: 74%   Direction: 280°W
Pressure: 30.22"   Gusts: NA
Location:  41.08°N, 77.46°W
Report Text: KUNV 281153Z 28010KT 10SM SCT030 M04/M08 A3022
Loading
Personal Weather Stations






























Interactive Weather Map New forecast layout! Learn more

10-Day Weather Forecast

Advertisements
Track Severe Weather on mobile